createdAt,value
2022-07-30T00:02:17.348Z,17.18
2022-07-30T00:05:01.936Z,17.22
2022-07-30T00:07:46.717Z,17.27
2022-07-30T00:10:31.398Z,17.28
2022-07-30T00:13:16.266Z,17.29
2022-07-30T00:16:00.970Z,17.29
2022-07-30T00:18:45.828Z,17.35
2022-07-30T00:21:36.137Z,17.39
2022-07-30T00:24:21.744Z,17.41
2022-07-30T00:27:06.602Z,17.43
2022-07-30T00:29:51.367Z,17.40
2022-07-30T00:32:36.154Z,17.44
2022-07-30T00:35:20.817Z,17.41
2022-07-30T00:38:05.442Z,17.37
2022-07-30T00:40:50.257Z,17.44
2022-07-30T00:43:34.969Z,17.41
2022-07-30T00:46:19.697Z,17.38
2022-07-30T00:49:04.357Z,17.43
2022-07-30T00:51:49.716Z,17.40
2022-07-30T00:54:34.480Z,17.46
2022-07-30T00:57:19.247Z,17.47
2022-07-30T01:00:04.112Z,17.51
2022-07-30T01:02:49.131Z,17.53
2022-07-30T01:05:33.896Z,17.52
2022-07-30T01:08:18.784Z,17.54
2022-07-30T01:11:03.539Z,17.57
2022-07-30T01:13:48.185Z,17.61
2022-07-30T01:16:33.082Z,17.61
2022-07-30T01:19:18.264Z,17.62
2022-07-30T01:22:02.976Z,17.67
2022-07-30T01:24:47.649Z,17.65
2022-07-30T01:27:32.450Z,17.60
2022-07-30T01:30:17.111Z,17.59
2022-07-30T01:33:02.450Z,17.52
2022-07-30T01:35:47.283Z,17.54
2022-07-30T01:38:35.158Z,17.54
2022-07-30T01:41:20.380Z,17.50
2022-07-30T01:44:05.061Z,17.44
2022-07-30T01:46:49.932Z,17.36
2022-07-30T01:49:34.695Z,17.36
2022-07-30T01:52:19.425Z,17.37
2022-07-30T01:55:04.243Z,17.36
2022-07-30T01:57:59.646Z,17.33
2022-07-30T02:00:44.342Z,17.29
2022-07-30T02:03:29.075Z,17.26
2022-07-30T02:06:13.730Z,17.18
2022-07-30T02:08:58.499Z,17.10
2022-07-30T02:11:43.260Z,16.94
2022-07-30T02:14:28.064Z,16.90
2022-07-30T02:17:19.146Z,16.87
2022-07-30T02:20:09.571Z,16.88
2022-07-30T02:22:54.956Z,16.78
2022-07-30T02:25:39.532Z,16.75
2022-07-30T02:28:24.425Z,16.66
2022-07-30T02:31:16.941Z,16.61
2022-07-30T02:34:02.527Z,16.59
2022-07-30T02:36:47.420Z,16.49
2022-07-30T02:39:32.112Z,16.47
2022-07-30T02:42:16.898Z,16.49
2022-07-30T02:45:06.419Z,16.43
2022-07-30T02:47:51.032Z,16.39
2022-07-30T02:50:35.817Z,16.43
2022-07-30T02:53:20.526Z,16.44
2022-07-30T02:56:05.239Z,16.43
2022-07-30T02:58:49.938Z,16.43
2022-07-30T03:01:35.367Z,16.47
2022-07-30T03:04:20.625Z,16.45
2022-07-30T03:07:08.397Z,16.45
2022-07-30T03:09:53.699Z,16.46
2022-07-30T03:12:38.474Z,16.45
2022-07-30T03:15:23.445Z,16.43
2022-07-30T03:18:08.445Z,16.44
2022-07-30T03:20:53.153Z,16.37
2022-07-30T03:23:38.056Z,16.37
2022-07-30T03:26:22.767Z,16.25
2022-07-30T03:29:07.608Z,16.15
2022-07-30T03:31:54.962Z,16.16
2022-07-30T03:34:40.217Z,16.11
2022-07-30T03:37:26.113Z,16.12
2022-07-30T03:40:10.911Z,16.08
2022-07-30T03:42:55.715Z,16.02
2022-07-30T03:45:40.532Z,15.96
2022-07-30T03:48:25.362Z,15.95
2022-07-30T03:51:10.275Z,15.86
2022-07-30T03:53:54.962Z,15.90
2022-07-30T03:56:39.803Z,15.96
2022-07-30T03:59:24.593Z,16.00
2022-07-30T04:02:09.409Z,15.97
2022-07-30T04:04:54.646Z,16.01
2022-07-30T04:07:41.382Z,16.07
2022-07-30T04:10:30.379Z,16.12
2022-07-30T04:13:15.085Z,16.20
2022-07-30T04:16:38.115Z,16.24
2022-07-30T04:19:04.861Z,16.24
2022-07-30T04:21:49.740Z,16.27
2022-07-30T04:24:34.502Z,16.34
2022-07-30T04:27:19.385Z,16.34
2022-07-30T04:30:04.176Z,16.34
2022-07-30T04:32:48.812Z,16.38
2022-07-30T04:35:50.952Z,16.45
2022-07-30T04:38:37.225Z,16.38
2022-07-30T04:41:21.919Z,16.38
2022-07-30T04:44:06.663Z,16.44
2022-07-30T04:46:51.353Z,16.55
2022-07-30T04:49:36.455Z,16.60
2022-07-30T04:52:21.120Z,16.58
2022-07-30T04:55:06.090Z,16.60
2022-07-30T04:57:50.787Z,16.67
2022-07-30T05:00:40.506Z,16.72
2022-07-30T05:03:26.036Z,16.75
2022-07-30T05:06:10.711Z,16.81
2022-07-30T05:08:55.997Z,16.89
2022-07-30T05:11:40.791Z,17.00
2022-07-30T05:14:25.541Z,17.07
2022-07-30T05:17:10.170Z,17.18
2022-07-30T05:19:55.064Z,17.31
2022-07-30T05:22:39.799Z,17.48
2022-07-30T05:25:28.002Z,17.66
2022-07-30T05:28:12.765Z,17.83
2022-07-30T05:30:57.794Z,17.90
2022-07-30T05:33:42.934Z,19.72
2022-07-30T05:36:28.273Z,21.13
2022-07-30T05:39:12.895Z,20.87
2022-07-30T05:41:57.726Z,21.04
2022-07-30T05:44:42.447Z,20.52
2022-07-30T05:47:27.320Z,19.91
2022-07-30T05:50:12.137Z,19.53
2022-07-30T05:52:56.903Z,19.19
2022-07-30T05:55:41.930Z,18.95
2022-07-30T05:58:26.613Z,19.00
2022-07-30T06:01:12.111Z,19.85
2022-07-30T06:03:57.243Z,24.46
2022-07-30T06:06:42.058Z,26.94
2022-07-30T06:09:36.169Z,28.70
2022-07-30T06:12:21.413Z,28.88
2022-07-30T06:15:06.136Z,27.31
2022-07-30T06:17:51.138Z,25.01
2022-07-30T06:20:44.424Z,24.65
2022-07-30T06:23:29.171Z,28.82
2022-07-30T06:26:13.917Z,26.10
2022-07-30T06:28:58.473Z,24.50
2022-07-30T06:31:43.293Z,27.12
2022-07-30T06:34:27.996Z,29.37
2022-07-30T06:37:12.846Z,31.45
2022-07-30T06:39:58.729Z,33.08
2022-07-30T06:42:43.840Z,34.31
2022-07-30T06:45:28.554Z,35.42
2022-07-30T06:48:13.323Z,36.18
2022-07-30T06:50:58.017Z,36.26
2022-07-30T06:53:43.035Z,36.51
2022-07-30T06:56:28.199Z,35.53
2022-07-30T06:59:12.958Z,34.26
2022-07-30T07:01:57.721Z,34.56
2022-07-30T07:04:43.019Z,31.64
2022-07-30T07:07:41.217Z,32.47
2022-07-30T07:10:27.022Z,32.43
2022-07-30T07:13:11.773Z,32.53
2022-07-30T07:15:56.704Z,33.22
2022-07-30T07:18:41.436Z,34.70
2022-07-30T07:21:26.248Z,35.30
2022-07-30T07:24:10.989Z,36.63
2022-07-30T07:26:55.768Z,37.27
2022-07-30T07:29:40.600Z,37.56
2022-07-30T07:32:45.445Z,37.64
2022-07-30T07:35:30.239Z,37.02
2022-07-30T07:38:14.816Z,36.29
2022-07-30T07:40:59.552Z,35.12
2022-07-30T07:43:44.154Z,33.29
2022-07-30T07:46:33.601Z,31.61
2022-07-30T07:49:19.429Z,30.12
2022-07-30T07:52:04.602Z,28.67
2022-07-30T07:54:49.335Z,27.43
2022-07-30T07:57:35.247Z,27.03
2022-07-30T08:00:21.014Z,26.08
2022-07-30T08:03:05.825Z,25.63
2022-07-30T08:05:53.950Z,25.43
2022-07-30T08:08:50.861Z,25.23
2022-07-30T08:11:35.658Z,24.99
2022-07-30T08:14:20.377Z,24.97
2022-07-30T08:17:05.650Z,25.03
2022-07-30T08:19:51.032Z,25.25
2022-07-30T08:22:35.880Z,25.31
2022-07-30T08:25:22.154Z,25.43
2022-07-30T08:28:36.291Z,25.68
2022-07-30T08:31:14.540Z,25.49
2022-07-30T08:33:59.195Z,25.59
2022-07-30T08:36:43.915Z,25.54
2022-07-30T08:39:28.711Z,25.47
2022-07-30T08:42:13.543Z,25.39
2022-07-30T08:44:58.300Z,25.51
2022-07-30T08:47:43.067Z,24.96
2022-07-30T08:50:27.938Z,24.54
2022-07-30T08:53:12.629Z,24.37
2022-07-30T08:55:58.778Z,24.18
2022-07-30T08:58:43.952Z,24.60
2022-07-30T09:01:28.636Z,24.93
2022-07-30T09:04:13.447Z,24.54
2022-07-30T09:06:58.260Z,24.19
2022-07-30T09:09:42.902Z,23.66
2022-07-30T09:12:27.698Z,23.61
2022-07-30T09:15:12.487Z,23.43
2022-07-30T09:17:57.228Z,23.66
2022-07-30T09:20:42.050Z,24.17
2022-07-30T09:23:26.720Z,24.34
2022-07-30T09:26:11.607Z,24.48
2022-07-30T09:28:56.298Z,24.73
2022-07-30T09:31:43.543Z,24.87
2022-07-30T09:34:28.824Z,24.68
2022-07-30T09:37:13.616Z,24.76
2022-07-30T09:39:59.142Z,24.74
2022-07-30T09:42:44.535Z,24.92
2022-07-30T09:45:34.943Z,24.67
2022-07-30T09:48:19.904Z,24.66
2022-07-30T09:51:04.630Z,24.74
2022-07-30T09:53:49.276Z,25.02
2022-07-30T09:56:34.051Z,25.23
2022-07-30T09:59:19.770Z,25.31
2022-07-30T10:02:09.945Z,25.48
2022-07-30T10:04:55.380Z,25.28
2022-07-30T10:07:42.918Z,25.29
2022-07-30T10:10:28.927Z,25.15
2022-07-30T10:13:20.530Z,25.18
2022-07-30T10:16:05.603Z,25.21
2022-07-30T10:18:51.471Z,25.53
2022-07-30T10:21:36.840Z,25.68
2022-07-30T10:24:27.643Z,25.63
2022-07-30T10:27:12.930Z,25.39
2022-07-30T10:29:57.981Z,25.54
2022-07-30T10:32:42.714Z,25.36
2022-07-30T10:35:34.819Z,25.30
2022-07-30T10:38:23.408Z,25.33
2022-07-30T10:41:08.146Z,25.13
2022-07-30T10:43:52.807Z,24.90
2022-07-30T10:46:37.848Z,24.98
2022-07-30T10:49:22.558Z,25.09
2022-07-30T10:52:07.255Z,24.91
2022-07-30T10:54:51.934Z,24.97
2022-07-30T10:57:41.544Z,25.03
2022-07-30T11:00:29.713Z,25.16
2022-07-30T11:03:16.001Z,25.36
2022-07-30T11:06:00.944Z,25.69
2022-07-30T11:08:48.052Z,26.09
2022-07-30T11:12:01.181Z,26.49
2022-07-30T11:14:38.271Z,26.42
2022-07-30T11:17:23.103Z,26.40
2022-07-30T11:20:11.832Z,26.63
2022-07-30T11:22:56.994Z,26.44
2022-07-30T11:25:51.275Z,26.39
2022-07-30T11:28:39.101Z,26.19
2022-07-30T11:31:24.132Z,26.37
2022-07-30T11:34:25.658Z,26.83
2022-07-30T11:37:19.202Z,26.98
2022-07-30T11:40:07.557Z,27.10
2022-07-30T11:42:52.373Z,27.33
2022-07-30T11:45:36.986Z,27.44
2022-07-30T11:48:21.801Z,27.83
2022-07-30T11:51:06.468Z,27.17
2022-07-30T11:53:51.232Z,27.43
2022-07-30T11:56:36.437Z,27.60
2022-07-30T11:59:21.120Z,27.69
2022-07-30T12:02:06.145Z,27.51
2022-07-30T12:04:51.118Z,27.38
2022-07-30T12:07:35.902Z,26.87
2022-07-30T12:10:26.781Z,26.32
2022-07-30T12:13:12.326Z,26.37
2022-07-30T12:15:57.214Z,26.26
2022-07-30T12:18:41.944Z,26.47
2022-07-30T12:21:26.726Z,26.75
2022-07-30T12:24:11.372Z,26.94
2022-07-30T12:26:56.109Z,26.99
2022-07-30T12:29:40.899Z,26.99
2022-07-30T12:32:25.753Z,27.04
2022-07-30T12:35:10.520Z,27.47
2022-07-30T12:37:55.357Z,27.82
2022-07-30T12:40:40.218Z,27.94
2022-07-30T12:43:24.918Z,27.81
2022-07-30T12:46:13.178Z,28.05
2022-07-30T12:48:59.889Z,28.34
2022-07-30T12:51:58.406Z,28.60
2022-07-30T12:54:45.315Z,28.72
2022-07-30T12:57:30.097Z,28.51
2022-07-30T13:00:14.797Z,28.19
2022-07-30T13:02:59.500Z,27.45
2022-07-30T13:05:44.213Z,27.02
2022-07-30T13:08:29.042Z,26.87
2022-07-30T13:11:13.790Z,26.94
2022-07-30T13:13:58.621Z,26.93
2022-07-30T13:16:43.325Z,26.76
2022-07-30T13:19:28.135Z,26.80
2022-07-30T13:22:12.871Z,27.07
2022-07-30T13:24:57.742Z,27.28
2022-07-30T13:27:42.403Z,27.43
2022-07-30T13:30:27.169Z,27.83
2022-07-30T13:33:11.852Z,28.19
2022-07-30T13:35:56.600Z,28.43
2022-07-30T13:38:41.430Z,28.66
2022-07-30T13:41:26.201Z,28.24
2022-07-30T13:44:10.947Z,27.87
2022-07-30T13:46:58.780Z,27.72
2022-07-30T13:49:46.468Z,26.87
2022-07-30T13:52:37.395Z,26.62
2022-07-30T13:55:22.384Z,26.45
2022-07-30T13:58:07.200Z,26.29
2022-07-30T14:00:51.900Z,26.17
2022-07-30T14:03:36.699Z,26.47
2022-07-30T14:06:21.623Z,26.54
2022-07-30T14:09:07.533Z,26.51
2022-07-30T14:11:52.349Z,26.29
2022-07-30T14:14:37.037Z,26.27
2022-07-30T14:17:21.658Z,26.31
2022-07-30T14:20:06.454Z,26.11
2022-07-30T14:22:51.264Z,26.11
2022-07-30T14:25:35.957Z,26.20
2022-07-30T14:28:20.759Z,26.16
2022-07-30T14:31:05.438Z,26.08
2022-07-30T14:33:50.262Z,26.11
2022-07-30T14:36:35.024Z,26.16
2022-07-30T14:39:19.729Z,26.36
2022-07-30T14:42:04.434Z,26.35
2022-07-30T14:44:49.226Z,26.26
2022-07-30T14:47:34.078Z,26.35
2022-07-30T14:50:18.923Z,26.24
2022-07-30T14:53:04.429Z,26.19
2022-07-30T14:55:49.176Z,26.06
2022-07-30T14:58:34.031Z,26.26
2022-07-30T15:01:19.707Z,26.32
2022-07-30T15:04:05.028Z,26.17
2022-07-30T15:06:49.681Z,26.11
2022-07-30T15:09:34.496Z,26.17
2022-07-30T15:12:23.569Z,26.18
2022-07-30T15:15:12.369Z,26.25
2022-07-30T15:17:59.386Z,26.41
2022-07-30T15:20:44.278Z,26.42
2022-07-30T15:23:29.267Z,26.04
2022-07-30T15:26:14.451Z,26.12
2022-07-30T15:28:59.215Z,26.28
2022-07-30T15:31:43.896Z,26.42
2022-07-30T15:34:28.676Z,26.21
2022-07-30T15:37:13.425Z,25.97
2022-07-30T15:39:58.379Z,25.84
2022-07-30T15:42:43.000Z,25.96
2022-07-30T15:45:27.826Z,25.83
2022-07-30T15:48:12.489Z,26.05
2022-07-30T15:51:09.875Z,25.99
2022-07-30T15:53:54.600Z,25.59
2022-07-30T15:56:39.546Z,25.71
2022-07-30T15:59:24.207Z,25.83
2022-07-30T16:02:08.951Z,25.98
2022-07-30T16:04:53.714Z,26.12
2022-07-30T16:07:38.617Z,26.12
2022-07-30T16:10:23.472Z,26.17
2022-07-30T16:13:08.264Z,26.06
2022-07-30T16:15:52.983Z,25.92
2022-07-30T16:18:37.757Z,25.93
2022-07-30T16:21:22.528Z,25.86
2022-07-30T16:24:07.145Z,25.79
2022-07-30T16:26:51.939Z,25.65
2022-07-30T16:29:36.636Z,25.49
2022-07-30T16:32:21.497Z,25.48
2022-07-30T16:35:08.415Z,25.51
2022-07-30T16:37:56.442Z,25.54
2022-07-30T16:40:41.290Z,25.49
2022-07-30T16:43:25.985Z,25.58
2022-07-30T16:46:10.831Z,25.61
2022-07-30T16:48:55.620Z,25.42
2022-07-30T16:51:40.405Z,25.39
2022-07-30T16:54:25.345Z,25.07
2022-07-30T16:57:10.533Z,25.06
2022-07-30T16:59:56.074Z,25.05
2022-07-30T17:02:41.110Z,25.19
2022-07-30T17:05:25.835Z,25.06
2022-07-30T17:08:10.506Z,24.96
2022-07-30T17:10:55.331Z,24.89
2022-07-30T17:13:42.420Z,24.84
2022-07-30T17:16:27.502Z,24.88
2022-07-30T17:19:12.527Z,24.84
2022-07-30T17:21:57.273Z,24.82
2022-07-30T17:24:42.153Z,24.76
2022-07-30T17:27:26.793Z,24.82
2022-07-30T17:30:11.482Z,24.96
2022-07-30T17:32:56.245Z,25.00
2022-07-30T17:35:40.962Z,24.90
2022-07-30T17:38:25.812Z,24.81
2022-07-30T17:41:13.387Z,24.71
2022-07-30T17:43:59.022Z,24.59
2022-07-30T17:46:43.825Z,24.62
2022-07-30T17:49:28.640Z,24.69
2022-07-30T17:52:13.331Z,24.69
2022-07-30T17:54:58.197Z,24.64
2022-07-30T17:57:43.018Z,24.67
2022-07-30T18:00:27.764Z,24.73
2022-07-30T18:03:12.658Z,24.70
2022-07-30T18:05:57.339Z,24.71
2022-07-30T18:08:42.152Z,24.68
2022-07-30T18:11:26.899Z,24.64
2022-07-30T18:14:11.631Z,24.67
2022-07-30T18:16:56.478Z,24.53
2022-07-30T18:19:41.317Z,24.46
2022-07-30T18:22:29.862Z,24.46
2022-07-30T18:25:19.302Z,24.43
2022-07-30T18:28:04.403Z,24.36
2022-07-30T18:30:49.350Z,24.27
2022-07-30T18:33:34.169Z,24.10
2022-07-30T18:36:18.837Z,24.11
2022-07-30T18:39:03.364Z,24.18
2022-07-30T18:41:48.094Z,24.13
2022-07-30T18:44:32.788Z,24.11
2022-07-30T18:47:17.500Z,24.13
2022-07-30T18:50:02.326Z,24.13
2022-07-30T18:52:47.567Z,24.18
2022-07-30T18:55:32.388Z,24.15
2022-07-30T18:58:17.098Z,24.13
2022-07-30T19:01:01.909Z,24.16
2022-07-30T19:03:46.522Z,24.10
2022-07-30T19:06:31.253Z,24.00
2022-07-30T19:09:17.956Z,23.98
2022-07-30T19:12:03.491Z,24.01
2022-07-30T19:14:48.454Z,23.95
2022-07-30T19:17:45.421Z,23.71
2022-07-30T19:20:32.133Z,23.62
2022-07-30T19:23:16.934Z,23.38
2022-07-30T19:26:01.726Z,23.14
2022-07-30T19:28:46.373Z,22.94
2022-07-30T19:31:31.145Z,22.72
2022-07-30T19:34:15.848Z,22.58
2022-07-30T19:37:00.663Z,22.22
2022-07-30T19:40:05.614Z,22.14
2022-07-30T19:42:51.591Z,22.02
2022-07-30T19:45:47.510Z,21.85
2022-07-30T19:48:32.822Z,21.84
2022-07-30T19:51:21.076Z,21.75
2022-07-30T19:54:09.931Z,21.68
2022-07-30T19:56:54.766Z,21.64
2022-07-30T19:59:45.749Z,21.59
2022-07-30T20:02:44.543Z,21.50
2022-07-30T20:05:30.493Z,21.51
2022-07-30T20:08:15.586Z,21.48
2022-07-30T20:11:00.374Z,21.38
2022-07-30T20:13:46.272Z,21.19
2022-07-30T20:16:31.490Z,21.08
2022-07-30T20:19:16.699Z,20.97
2022-07-30T20:22:01.569Z,20.97
2022-07-30T20:24:46.235Z,20.89
2022-07-30T20:27:35.942Z,20.91
2022-07-30T20:30:25.310Z,20.83
2022-07-30T20:33:10.144Z,20.77
2022-07-30T20:35:54.819Z,20.76
2022-07-30T20:38:39.886Z,20.74
2022-07-30T20:41:25.054Z,20.66
2022-07-30T20:44:14.666Z,20.63
2022-07-30T20:47:08.578Z,20.61
2022-07-30T20:49:53.507Z,20.60
2022-07-30T20:52:39.388Z,20.54
2022-07-30T20:55:24.531Z,20.50
2022-07-30T20:58:16.519Z,20.41
2022-07-30T21:01:04.771Z,20.34
2022-07-30T21:03:50.033Z,20.35
2022-07-30T21:06:34.939Z,20.31
2022-07-30T21:09:20.133Z,20.18
2022-07-30T21:12:05.844Z,20.12
2022-07-30T21:14:51.651Z,20.09
2022-07-30T21:17:36.239Z,20.12
2022-07-30T21:20:27.332Z,20.05
2022-07-30T21:23:13.101Z,20.02
2022-07-30T21:26:01.307Z,20.01
2022-07-30T21:28:49.242Z,19.99
2022-07-30T21:31:35.078Z,19.95
2022-07-30T21:37:44.940Z,19.88
2022-07-30T21:40:29.820Z,19.74
2022-07-30T21:43:14.574Z,19.76
2022-07-30T21:46:08.091Z,19.72
2022-07-30T21:48:58.530Z,19.74
2022-07-30T21:52:00.164Z,19.69
2022-07-30T21:54:48.145Z,19.66
2022-07-30T21:57:34.611Z,19.69
2022-07-30T22:00:20.870Z,19.61
2022-07-30T22:06:12.493Z,19.52
2022-07-30T22:08:57.912Z,19.48
2022-07-30T22:11:45.361Z,19.46
2022-07-30T22:14:31.655Z,19.48
2022-07-30T22:17:23.942Z,19.43
2022-07-30T22:20:21.252Z,19.40
2022-07-30T22:23:06.701Z,19.31
2022-07-30T22:25:51.998Z,19.29
2022-07-30T22:28:45.107Z,19.21
2022-07-30T22:31:30.951Z,19.20
2022-07-30T22:34:24.407Z,19.16
2022-07-30T22:37:12.795Z,19.16
2022-07-30T22:39:58.513Z,19.15
2022-07-30T22:42:49.686Z,19.06
2022-07-30T22:45:47.409Z,19.08
2022-07-30T22:48:34.767Z,19.07
2022-07-30T22:51:20.452Z,19.01
2022-07-30T22:54:12.828Z,18.94
2022-07-30T22:56:58.063Z,18.94
2022-07-30T22:59:49.416Z,18.91
2022-07-30T23:02:43.721Z,18.86
2022-07-30T23:05:28.471Z,18.83
2022-07-30T23:08:14.237Z,18.82
2022-07-30T23:10:59.155Z,18.81
2022-07-30T23:12:27.492Z,19.95
2022-07-30T23:12:28.084Z,19.54
2022-07-30T23:13:44.448Z,18.79
2022-07-30T23:16:29.217Z,18.81
2022-07-30T23:19:21.852Z,18.74
2022-07-30T23:22:07.150Z,18.74
2022-07-30T23:24:51.833Z,18.65
2022-07-30T23:27:36.499Z,18.69
2022-07-30T23:30:21.322Z,18.68
2022-07-30T23:33:06.087Z,18.68
2022-07-30T23:35:51.350Z,18.63
2022-07-30T23:38:36.287Z,18.63
2022-07-30T23:41:30.402Z,18.57
2022-07-30T23:44:15.852Z,18.55
2022-07-30T23:47:01.035Z,18.51
2022-07-30T23:49:45.913Z,18.49
2022-07-30T23:52:30.609Z,18.45
2022-07-30T23:55:15.508Z,18.44
2022-07-30T23:58:00.234Z,18.40
